In Rescue
 
Open Full Screen Window  High Contrast Mode
Wind Gusting 00 knots
11
May 25, 2022 8:24 PM CDT
Weather Information
Wind Direction
  040 °
Wind Speed
  11 kt (13 mph)
Wind Gust
  00 kt (0 mph)
Altimeter
29.92 in
Visibility
10 SM
Temperature
11° C
52° F
Dewpoint
07° C
45° F
Humidity
77%
1hr Rain Fall
00.00 in.
24hr Rain Fall
00.00 in.
Sky Condition
Broken @ 2,600 ft
Broken @ 1,900 ft
MVFR

METAR KGHW 260124Z AUTO 04011KT 10SM BKN019 BKN026 11/07 A2992 RMK AO2

FAA Disclaimer: The data displayed is for advisory purposes only and is not to be used for flight planning or operations.